sensor_id;sensor_type;location;lat;lon;timestamp;P1;durP1;ratioP1;P2;durP2;ratioP2
26858;SDS011;14429;48.346;16.338;2022-11-21T00:00:40;7.60;;;3.65;;
26858;SDS011;14429;48.346;16.338;2022-11-21T00:03:08;7.00;;;3.97;;
26858;SDS011;14429;48.346;16.338;2022-11-21T00:05:37;7.78;;;3.58;;
26858;SDS011;14429;48.346;16.338;2022-11-21T00:08:05;4.20;;;3.10;;
26858;SDS011;14429;48.346;16.338;2022-11-21T00:10:30;7.18;;;3.60;;
26858;SDS011;14429;48.346;16.338;2022-11-21T00:12:56;8.55;;;3.38;;
26858;SDS011;14429;48.346;16.338;2022-11-21T00:15:22;7.50;;;3.70;;
26858;SDS011;14429;48.346;16.338;2022-11-21T00:17:49;8.48;;;4.13;;
26858;SDS011;14429;48.346;16.338;2022-11-21T00:20:15;7.95;;;3.53;;
26858;SDS011;14429;48.346;16.338;2022-11-21T00:22:40;7.38;;;3.65;;
26858;SDS011;14429;48.346;16.338;2022-11-21T00:25:08;8.35;;;3.83;;
26858;SDS011;14429;48.346;16.338;2022-11-21T00:27:34;5.88;;;3.35;;
26858;SDS011;14429;48.346;16.338;2022-11-21T00:29:59;6.38;;;3.17;;
26858;SDS011;14429;48.346;16.338;2022-11-21T00:32:25;5.97;;;3.80;;
26858;SDS011;14429;48.346;16.338;2022-11-21T00:34:53;6.22;;;3.72;;
26858;SDS011;14429;48.346;16.338;2022-11-21T00:37:18;5.35;;;3.00;;
26858;SDS011;14429;48.346;16.338;2022-11-21T00:39:44;7.18;;;2.83;;
26858;SDS011;14429;48.346;16.338;2022-11-21T00:42:10;6.05;;;3.63;;
26858;SDS011;14429;48.346;16.338;2022-11-21T00:44:36;4.75;;;3.05;;
26858;SDS011;14429;48.346;16.338;2022-11-21T00:47:01;4.40;;;3.30;;
26858;SDS011;14429;48.346;16.338;2022-11-21T00:49:27;5.82;;;4.07;;
26858;SDS011;14429;48.346;16.338;2022-11-21T00:51:52;10.43;;;4.85;;
26858;SDS011;14429;48.346;16.338;2022-11-21T00:54:18;6.03;;;3.55;;
26858;SDS011;14429;48.346;16.338;2022-11-21T00:56:43;5.97;;;3.30;;
26858;SDS011;14429;48.346;16.338;2022-11-21T00:59:10;5.97;;;3.22;;
26858;SDS011;14429;48.346;16.338;2022-11-21T01:01:35;8.18;;;3.88;;
26858;SDS011;14429;48.346;16.338;2022-11-21T01:04:01;4.65;;;3.05;;
26858;SDS011;14429;48.346;16.338;2022-11-21T01:06:26;5.68;;;3.85;;
26858;SDS011;14429;48.346;16.338;2022-11-21T01:08:51;6.55;;;3.65;;
26858;SDS011;14429;48.346;16.338;2022-11-21T01:11:18;6.40;;;3.40;;
26858;SDS011;14429;48.346;16.338;2022-11-21T01:13:44;6.80;;;3.72;;
26858;SDS011;14429;48.346;16.338;2022-11-21T01:16:12;9.25;;;3.88;;
26858;SDS011;14429;48.346;16.338;2022-11-21T01:18:39;5.25;;;3.20;;
26858;SDS011;14429;48.346;16.338;2022-11-21T01:21:06;6.97;;;3.38;;
26858;SDS011;14429;48.346;16.338;2022-11-21T01:23:32;4.85;;;3.08;;
26858;SDS011;14429;48.346;16.338;2022-11-21T01:26:01;6.32;;;3.38;;
26858;SDS011;14429;48.346;16.338;2022-11-21T01:28:26;6.32;;;3.60;;
26858;SDS011;14429;48.346;16.338;2022-11-21T01:30:52;7.57;;;3.20;;
26858;SDS011;14429;48.346;16.338;2022-11-21T01:33:18;5.45;;;3.60;;
26858;SDS011;14429;48.346;16.338;2022-11-21T01:35:44;5.45;;;2.75;;
26858;SDS011;14429;48.346;16.338;2022-11-21T01:38:09;5.93;;;3.42;;
26858;SDS011;14429;48.346;16.338;2022-11-21T01:40:36;6.72;;;3.33;;
26858;SDS011;14429;48.346;16.338;2022-11-21T01:43:03;6.43;;;3.10;;
26858;SDS011;14429;48.346;16.338;2022-11-21T01:45:55;7.13;;;3.70;;
26858;SDS011;14429;48.346;16.338;2022-11-21T01:48:25;7.25;;;3.20;;
26858;SDS011;14429;48.346;16.338;2022-11-21T01:50:57;5.65;;;3.13;;
26858;SDS011;14429;48.346;16.338;2022-11-21T01:53:27;6.32;;;3.60;;
26858;SDS011;14429;48.346;16.338;2022-11-21T01:55:52;4.88;;;2.95;;
26858;SDS011;14429;48.346;16.338;2022-11-21T01:58:18;4.88;;;2.83;;
26858;SDS011;14429;48.346;16.338;2022-11-21T02:00:44;5.18;;;2.92;;
26858;SDS011;14429;48.346;16.338;2022-11-21T02:03:12;5.90;;;3.17;;
26858;SDS011;14429;48.346;16.338;2022-11-21T02:05:41;5.75;;;3.20;;
26858;SDS011;14429;48.346;16.338;2022-11-21T02:08:08;5.05;;;3.20;;
26858;SDS011;14429;48.346;16.338;2022-11-21T02:10:37;4.35;;;3.17;;
26858;SDS011;14429;48.346;16.338;2022-11-21T02:13:08;6.05;;;3.30;;
26858;SDS011;14429;48.346;16.338;2022-11-21T02:15:33;4.60;;;2.80;;
26858;SDS011;14429;48.346;16.338;2022-11-21T02:17:59;6.32;;;3.03;;
26858;SDS011;14429;48.346;16.338;2022-11-21T02:20:24;5.05;;;3.03;;
26858;SDS011;14429;48.346;16.338;2022-11-21T02:22:53;5.72;;;3.80;;
26858;SDS011;14429;48.346;16.338;2022-11-21T02:27:54;4.93;;;3.47;;
26858;SDS011;14429;48.346;16.338;2022-11-21T02:30:23;6.43;;;2.88;;
26858;SDS011;14429;48.346;16.338;2022-11-21T02:32:49;5.70;;;3.20;;
26858;SDS011;14429;48.346;16.338;2022-11-21T02:35:15;5.35;;;3.20;;
26858;SDS011;14429;48.346;16.338;2022-11-21T02:37:42;6.05;;;2.95;;
26858;SDS011;14429;48.346;16.338;2022-11-21T02:40:10;4.90;;;3.10;;
26858;SDS011;14429;48.346;16.338;2022-11-21T02:42:40;4.38;;;3.08;;
26858;SDS011;14429;48.346;16.338;2022-11-21T02:45:11;5.70;;;3.15;;
26858;SDS011;14429;48.346;16.338;2022-11-21T02:47:40;5.35;;;3.00;;
26858;SDS011;14429;48.346;16.338;2022-11-21T02:50:09;6.63;;;3.58;;
26858;SDS011;14429;48.346;16.338;2022-11-21T02:52:37;3.92;;;2.75;;
26858;SDS011;14429;48.346;16.338;2022-11-21T02:55:02;5.47;;;3.33;;
26858;SDS011;14429;48.346;16.338;2022-11-21T02:57:28;5.15;;;3.47;;
26858;SDS011;14429;48.346;16.338;2022-11-21T02:59:55;7.25;;;3.30;;
26858;SDS011;14429;48.346;16.338;2022-11-21T03:02:20;4.65;;;2.72;;
26858;SDS011;14429;48.346;16.338;2022-11-21T03:04:46;5.13;;;2.75;;
26858;SDS011;14429;48.346;16.338;2022-11-21T03:07:11;5.07;;;3.05;;
26858;SDS011;14429;48.346;16.338;2022-11-21T03:09:37;4.75;;;3.05;;
26858;SDS011;14429;48.346;16.338;2022-11-21T03:12:05;5.43;;;2.97;;
26858;SDS011;14429;48.346;16.338;2022-11-21T03:14:31;4.68;;;3.10;;
26858;SDS011;14429;48.346;16.338;2022-11-21T03:16:58;7.47;;;3.60;;
26858;SDS011;14429;48.346;16.338;2022-11-21T03:19:23;5.38;;;3.30;;
26858;SDS011;14429;48.346;16.338;2022-11-21T03:21:49;4.88;;;3.10;;
26858;SDS011;14429;48.346;16.338;2022-11-21T03:24:14;5.55;;;3.20;;
26858;SDS011;14429;48.346;16.338;2022-11-21T03:26:40;5.70;;;3.28;;
26858;SDS011;14429;48.346;16.338;2022-11-21T03:29:05;17.77;;;8.02;;
26858;SDS011;14429;48.346;16.338;2022-11-21T03:31:31;5.78;;;3.25;;
26858;SDS011;14429;48.346;16.338;2022-11-21T03:33:57;17.27;;;7.05;;
26858;SDS011;14429;48.346;16.338;2022-11-21T03:36:23;6.53;;;2.85;;
26858;SDS011;14429;48.346;16.338;2022-11-21T03:38:48;7.65;;;3.40;;
26858;SDS011;14429;48.346;16.338;2022-11-21T03:41:14;7.03;;;3.20;;
26858;SDS011;14429;48.346;16.338;2022-11-21T03:43:39;5.20;;;3.10;;
26858;SDS011;14429;48.346;16.338;2022-11-21T03:46:04;6.65;;;3.80;;
26858;SDS011;14429;48.346;16.338;2022-11-21T03:48:30;3.97;;;3.00;;
26858;SDS011;14429;48.346;16.338;2022-11-21T03:50:56;6.80;;;3.40;;
26858;SDS011;14429;48.346;16.338;2022-11-21T03:53:22;6.22;;;3.08;;
26858;SDS011;14429;48.346;16.338;2022-11-21T03:55:47;5.75;;;3.10;;
26858;SDS011;14429;48.346;16.338;2022-11-21T03:58:13;4.25;;;2.38;;
26858;SDS011;14429;48.346;16.338;2022-11-21T04:00:38;5.57;;;2.65;;
26858;SDS011;14429;48.346;16.338;2022-11-21T04:03:03;6.25;;;3.30;;
26858;SDS011;14429;48.346;16.338;2022-11-21T04:05:29;6.10;;;3.45;;
26858;SDS011;14429;48.346;16.338;2022-11-21T04:07:56;5.63;;;3.45;;
26858;SDS011;14429;48.346;16.338;2022-11-21T04:10:21;7.07;;;3.45;;
26858;SDS011;14429;48.346;16.338;2022-11-21T04:12:46;7.47;;;3.25;;
26858;SDS011;14429;48.346;16.338;2022-11-21T04:15:12;7.07;;;3.08;;
26858;SDS011;14429;48.346;16.338;2022-11-21T04:17:37;6.75;;;3.42;;
26858;SDS011;14429;48.346;16.338;2022-11-21T04:20:03;13.75;;;7.38;;
26858;SDS011;14429;48.346;16.338;2022-11-21T04:22:29;6.22;;;3.33;;
26858;SDS011;14429;48.346;16.338;2022-11-21T04:24:56;6.63;;;3.25;;
26858;SDS011;14429;48.346;16.338;2022-11-21T04:27:21;4.00;;;3.10;;
26858;SDS011;14429;48.346;16.338;2022-11-21T04:29:46;4.53;;;3.38;;
26858;SDS011;14429;48.346;16.338;2022-11-21T04:32:12;11.93;;;5.43;;
26858;SDS011;14429;48.346;16.338;2022-11-21T04:34:37;5.78;;;3.63;;
26858;SDS011;14429;48.346;16.338;2022-11-21T04:37:03;13.48;;;7.22;;
26858;SDS011;14429;48.346;16.338;2022-11-21T04:39:29;7.05;;;3.72;;
26858;SDS011;14429;48.346;16.338;2022-11-21T04:41:56;9.60;;;5.43;;
26858;SDS011;14429;48.346;16.338;2022-11-21T04:44:21;7.22;;;3.42;;
26858;SDS011;14429;48.346;16.338;2022-11-21T04:46:47;5.55;;;3.08;;
26858;SDS011;14429;48.346;16.338;2022-11-21T04:49:12;12.82;;;5.97;;
26858;SDS011;14429;48.346;16.338;2022-11-21T04:51:38;11.82;;;5.40;;
26858;SDS011;14429;48.346;16.338;2022-11-21T04:54:03;7.03;;;2.85;;
26858;SDS011;14429;48.346;16.338;2022-11-21T04:56:29;6.85;;;3.33;;
26858;SDS011;14429;48.346;16.338;2022-11-21T04:58:56;3.95;;;2.45;;
26858;SDS011;14429;48.346;16.338;2022-11-21T05:01:21;8.15;;;3.08;;
26858;SDS011;14429;48.346;16.338;2022-11-21T05:03:47;4.18;;;2.10;;
26858;SDS011;14429;48.346;16.338;2022-11-21T05:06:12;4.57;;;2.90;;
26858;SDS011;14429;48.346;16.338;2022-11-21T05:08:37;5.50;;;2.92;;
26858;SDS011;14429;48.346;16.338;2022-11-21T05:11:03;5.93;;;2.92;;
26858;SDS011;14429;48.346;16.338;2022-11-21T05:13:28;4.57;;;2.58;;
26858;SDS011;14429;48.346;16.338;2022-11-21T05:15:56;5.00;;;2.92;;
26858;SDS011;14429;48.346;16.338;2022-11-21T05:18:22;5.40;;;2.95;;
26858;SDS011;14429;48.346;16.338;2022-11-21T05:20:47;4.60;;;2.78;;
26858;SDS011;14429;48.346;16.338;2022-11-21T05:23:13;3.67;;;2.05;;
26858;SDS011;14429;48.346;16.338;2022-11-21T05:25:38;8.55;;;3.70;;
26858;SDS011;14429;48.346;16.338;2022-11-21T05:28:04;4.03;;;3.03;;
26858;SDS011;14429;48.346;16.338;2022-11-21T05:30:29;4.95;;;2.33;;
26858;SDS011;14429;48.346;16.338;2022-11-21T05:32:56;4.70;;;2.70;;
26858;SDS011;14429;48.346;16.338;2022-11-21T05:35:21;4.22;;;2.63;;
26858;SDS011;14429;48.346;16.338;2022-11-21T05:37:47;5.53;;;2.80;;
26858;SDS011;14429;48.346;16.338;2022-11-21T05:40:12;4.25;;;2.75;;
26858;SDS011;14429;48.346;16.338;2022-11-21T05:42:38;5.38;;;2.90;;
26858;SDS011;14429;48.346;16.338;2022-11-21T05:45:04;5.18;;;3.30;;
26858;SDS011;14429;48.346;16.338;2022-11-21T05:47:30;4.95;;;2.92;;
26858;SDS011;14429;48.346;16.338;2022-11-21T05:49:57;2.95;;;2.00;;
26858;SDS011;14429;48.346;16.338;2022-11-21T05:52:22;3.70;;;2.67;;
26858;SDS011;14429;48.346;16.338;2022-11-21T05:54:48;3.65;;;2.25;;
26858;SDS011;14429;48.346;16.338;2022-11-21T05:57:13;6.35;;;2.80;;
26858;SDS011;14429;48.346;16.338;2022-11-21T05:59:38;4.25;;;2.65;;
26858;SDS011;14429;48.346;16.338;2022-11-21T06:02:04;3.17;;;2.10;;
26858;SDS011;14429;48.346;16.338;2022-11-21T06:04:29;2.63;;;2.00;;
26858;SDS011;14429;48.346;16.338;2022-11-21T06:06:56;5.32;;;2.08;;
26858;SDS011;14429;48.346;16.338;2022-11-21T06:09:21;5.18;;;2.40;;
26858;SDS011;14429;48.346;16.338;2022-11-21T06:11:47;3.45;;;2.33;;
26858;SDS011;14429;48.346;16.338;2022-11-21T06:14:12;2.28;;;1.70;;
26858;SDS011;14429;48.346;16.338;2022-11-21T06:16:37;5.13;;;2.13;;
26858;SDS011;14429;48.346;16.338;2022-11-21T06:19:03;4.18;;;2.28;;
26858;SDS011;14429;48.346;16.338;2022-11-21T06:21:28;3.58;;;1.95;;
26858;SDS011;14429;48.346;16.338;2022-11-21T06:23:56;3.45;;;2.08;;
26858;SDS011;14429;48.346;16.338;2022-11-21T06:26:22;3.47;;;2.40;;
26858;SDS011;14429;48.346;16.338;2022-11-21T06:28:49;3.97;;;2.13;;
26858;SDS011;14429;48.346;16.338;2022-11-21T06:31:15;6.15;;;2.80;;
26858;SDS011;14429;48.346;16.338;2022-11-21T06:33:42;4.38;;;2.47;;
26858;SDS011;14429;48.346;16.338;2022-11-21T06:36:09;4.15;;;2.33;;
26858;SDS011;14429;48.346;16.338;2022-11-21T06:38:36;3.65;;;2.28;;
26858;SDS011;14429;48.346;16.338;2022-11-21T06:41:06;2.72;;;2.13;;
26858;SDS011;14429;48.346;16.338;2022-11-21T06:43:34;2.90;;;1.92;;
26858;SDS011;14429;48.346;16.338;2022-11-21T06:45:59;2.40;;;1.70;;
26858;SDS011;14429;48.346;16.338;2022-11-21T06:48:25;2.63;;;2.00;;
26858;SDS011;14429;48.346;16.338;2022-11-21T06:50:50;3.90;;;2.35;;
26858;SDS011;14429;48.346;16.338;2022-11-21T06:53:16;2.42;;;1.92;;
26858;SDS011;14429;48.346;16.338;2022-11-21T06:55:41;1.35;;;0.90;;
26858;SDS011;14429;48.346;16.338;2022-11-21T06:58:08;3.38;;;2.00;;
26858;SDS011;14429;48.346;16.338;2022-11-21T07:00:33;2.83;;;1.80;;
26858;SDS011;14429;48.346;16.338;2022-11-21T07:02:59;3.72;;;1.85;;
26858;SDS011;14429;48.346;16.338;2022-11-21T07:05:25;3.97;;;2.22;;
26858;SDS011;14429;48.346;16.338;2022-11-21T07:07:51;3.17;;;2.10;;
26858;SDS011;14429;48.346;16.338;2022-11-21T07:10:21;3.67;;;1.80;;
26858;SDS011;14429;48.346;16.338;2022-11-21T07:12:46;2.50;;;1.92;;
26858;SDS011;14429;48.346;16.338;2022-11-21T07:15:13;3.15;;;1.40;;
26858;SDS011;14429;48.346;16.338;2022-11-21T07:17:39;3.30;;;1.70;;
26858;SDS011;14429;48.346;16.338;2022-11-21T07:20:04;2.78;;;1.55;;
26858;SDS011;14429;48.346;16.338;2022-11-21T07:22:31;3.75;;;1.95;;
26858;SDS011;14429;48.346;16.338;2022-11-21T07:24:56;2.30;;;1.73;;
26858;SDS011;14429;48.346;16.338;2022-11-21T07:27:21;2.15;;;1.77;;
26858;SDS011;14429;48.346;16.338;2022-11-21T07:29:47;3.95;;;1.65;;
26858;SDS011;14429;48.346;16.338;2022-11-21T07:32:14;2.58;;;1.35;;
26858;SDS011;14429;48.346;16.338;2022-11-21T07:34:39;3.88;;;1.75;;
26858;SDS011;14429;48.346;16.338;2022-11-21T07:37:05;2.42;;;1.42;;
26858;SDS011;14429;48.346;16.338;2022-11-21T07:39:30;3.22;;;2.00;;
26858;SDS011;14429;48.346;16.338;2022-11-21T07:41:55;2.72;;;2.00;;
26858;SDS011;14429;48.346;16.338;2022-11-21T07:44:21;3.45;;;1.98;;
26858;SDS011;14429;48.346;16.338;2022-11-21T07:46:46;2.28;;;1.77;;
26858;SDS011;14429;48.346;16.338;2022-11-21T07:49:13;3.03;;;1.70;;
26858;SDS011;14429;48.346;16.338;2022-11-21T07:51:39;1.67;;;1.25;;
26858;SDS011;14429;48.346;16.338;2022-11-21T07:54:04;2.80;;;1.70;;
26858;SDS011;14429;48.346;16.338;2022-11-21T07:56:30;2.03;;;1.50;;
26858;SDS011;14429;48.346;16.338;2022-11-21T07:58:55;4.35;;;1.70;;
26858;SDS011;14429;48.346;16.338;2022-11-21T08:01:21;2.92;;;1.70;;
26858;SDS011;14429;48.346;16.338;2022-11-21T08:03:46;2.40;;;1.45;;
26858;SDS011;14429;48.346;16.338;2022-11-21T08:06:13;1.42;;;1.30;;
26858;SDS011;14429;48.346;16.338;2022-11-21T08:08:39;2.22;;;1.58;;
26858;SDS011;14429;48.346;16.338;2022-11-21T08:11:04;2.28;;;1.63;;
26858;SDS011;14429;48.346;16.338;2022-11-21T08:13:30;2.90;;;1.75;;
26858;SDS011;14429;48.346;16.338;2022-11-21T08:15:56;5.28;;;1.48;;
26858;SDS011;14429;48.346;16.338;2022-11-21T08:18:22;2.17;;;1.42;;
26858;SDS011;14429;48.346;16.338;2022-11-21T08:20:47;1.88;;;1.48;;
26858;SDS011;14429;48.346;16.338;2022-11-21T08:23:14;3.33;;;1.75;;
26858;SDS011;14429;48.346;16.338;2022-11-21T08:25:40;2.80;;;1.20;;
26858;SDS011;14429;48.346;16.338;2022-11-21T08:28:07;3.70;;;1.48;;
26858;SDS011;14429;48.346;16.338;2022-11-21T08:30:33;1.63;;;1.30;;
26858;SDS011;14429;48.346;16.338;2022-11-21T08:33:00;2.33;;;1.42;;
26858;SDS011;14429;48.346;16.338;2022-11-21T08:35:25;2.50;;;1.27;;
26858;SDS011;14429;48.346;16.338;2022-11-21T08:37:54;2.42;;;1.50;;
26858;SDS011;14429;48.346;16.338;2022-11-21T08:40:21;1.98;;;1.08;;
26858;SDS011;14429;48.346;16.338;2022-11-21T08:42:46;2.22;;;1.38;;
26858;SDS011;14429;48.346;16.338;2022-11-21T08:45:12;1.63;;;1.20;;
26858;SDS011;14429;48.346;16.338;2022-11-21T08:47:37;2.15;;;1.38;;
26858;SDS011;14429;48.346;16.338;2022-11-21T08:50:03;2.60;;;1.30;;
26858;SDS011;14429;48.346;16.338;2022-11-21T08:52:29;1.13;;;0.80;;
26858;SDS011;14429;48.346;16.338;2022-11-21T08:54:54;4.00;;;1.48;;
26858;SDS011;14429;48.346;16.338;2022-11-21T08:57:21;1.73;;;1.02;;
26858;SDS011;14429;48.346;16.338;2022-11-21T08:59:46;2.28;;;1.40;;
26858;SDS011;14429;48.346;16.338;2022-11-21T09:02:11;2.17;;;1.35;;
26858;SDS011;14429;48.346;16.338;2022-11-21T09:04:37;1.45;;;1.10;;
26858;SDS011;14429;48.346;16.338;2022-11-21T09:07:02;2.15;;;1.40;;
26858;SDS011;14429;48.346;16.338;2022-11-21T09:09:28;1.95;;;1.23;;
26858;SDS011;14429;48.346;16.338;2022-11-21T09:11:53;1.27;;;1.17;;
26858;SDS011;14429;48.346;16.338;2022-11-21T09:14:20;1.30;;;1.08;;
26858;SDS011;14429;48.346;16.338;2022-11-21T09:16:46;1.55;;;1.08;;
26858;SDS011;14429;48.346;16.338;2022-11-21T09:19:11;2.20;;;1.23;;
26858;SDS011;14429;48.346;16.338;2022-11-21T09:21:37;1.55;;;1.17;;
26858;SDS011;14429;48.346;16.338;2022-11-21T09:24:02;1.58;;;1.10;;
26858;SDS011;14429;48.346;16.338;2022-11-21T09:26:28;1.27;;;0.85;;
26858;SDS011;14429;48.346;16.338;2022-11-21T09:28:53;1.50;;;1.30;;
26858;SDS011;14429;48.346;16.338;2022-11-21T09:31:20;2.63;;;1.13;;
26858;SDS011;14429;48.346;16.338;2022-11-21T09:33:45;1.88;;;1.02;;
26858;SDS011;14429;48.346;16.338;2022-11-21T09:36:11;2.22;;;1.17;;
26858;SDS011;14429;48.346;16.338;2022-11-21T09:38:36;2.13;;;1.17;;
26858;SDS011;14429;48.346;16.338;2022-11-21T09:41:08;1.77;;;1.02;;
26858;SDS011;14429;48.346;16.338;2022-11-21T09:43:41;4.28;;;1.50;;
26858;SDS011;14429;48.346;16.338;2022-11-21T09:46:17;1.88;;;1.10;;
26858;SDS011;14429;48.346;16.338;2022-11-21T09:48:47;3.63;;;1.20;;
26858;SDS011;14429;48.346;16.338;2022-11-21T09:51:18;2.38;;;1.58;;
26858;SDS011;14429;48.346;16.338;2022-11-21T09:53:48;1.42;;;0.93;;
26858;SDS011;14429;48.346;16.338;2022-11-21T09:56:20;2.17;;;1.17;;
26858;SDS011;14429;48.346;16.338;2022-11-21T09:58:47;1.33;;;0.90;;
26858;SDS011;14429;48.346;16.338;2022-11-21T10:01:15;0.90;;;0.90;;
26858;SDS011;14429;48.346;16.338;2022-11-21T10:03:42;1.50;;;1.05;;
26858;SDS011;14429;48.346;16.338;2022-11-21T10:06:13;1.45;;;1.15;;
26858;SDS011;14429;48.346;16.338;2022-11-21T10:08:46;1.85;;;1.45;;
26858;SDS011;14429;48.346;16.338;2022-11-21T10:11:25;2.28;;;1.10;;
26858;SDS011;14429;48.346;16.338;2022-11-21T10:14:08;1.55;;;1.10;;
26858;SDS011;14429;48.346;16.338;2022-11-21T10:16:42;1.13;;;0.80;;
26858;SDS011;14429;48.346;16.338;2022-11-21T10:22:22;1.40;;;1.00;;
26858;SDS011;14429;48.346;16.338;2022-11-21T10:27:29;1.20;;;0.82;;
26858;SDS011;14429;48.346;16.338;2022-11-21T10:29:59;1.67;;;1.05;;
26858;SDS011;14429;48.346;16.338;2022-11-21T10:32:28;1.88;;;1.00;;
26858;SDS011;14429;48.346;16.338;2022-11-21T10:34:57;0.85;;;0.80;;
26858;SDS011;14429;48.346;16.338;2022-11-21T10:37:29;1.77;;;0.82;;
26858;SDS011;14429;48.346;16.338;2022-11-21T10:40:02;1.27;;;0.95;;
26858;SDS011;14429;48.346;16.338;2022-11-21T10:42:34;1.52;;;0.80;;
26858;SDS011;14429;48.346;16.338;2022-11-21T10:45:04;0.68;;;0.68;;
26858;SDS011;14429;48.346;16.338;2022-11-21T10:47:35;1.73;;;1.08;;
26858;SDS011;14429;48.346;16.338;2022-11-21T10:50:02;4.55;;;1.55;;
26858;SDS011;14429;48.346;16.338;2022-11-21T10:52:41;2.13;;;0.98;;
26858;SDS011;14429;48.346;16.338;2022-11-21T10:55:11;3.40;;;0.90;;
26858;SDS011;14429;48.346;16.338;2022-11-21T10:57:39;0.70;;;0.52;;
26858;SDS011;14429;48.346;16.338;2022-11-21T11:00:18;1.55;;;0.82;;
26858;SDS011;14429;48.346;16.338;2022-11-21T11:03:03;2.08;;;1.00;;
26858;SDS011;14429;48.346;16.338;2022-11-21T11:05:30;0.80;;;0.80;;
26858;SDS011;14429;48.346;16.338;2022-11-21T11:07:59;0.95;;;0.85;;
26858;SDS011;14429;48.346;16.338;2022-11-21T11:10:30;0.88;;;0.70;;
26858;SDS011;14429;48.346;16.338;2022-11-21T11:12:56;1.50;;;0.90;;
26858;SDS011;14429;48.346;16.338;2022-11-21T11:15:23;1.38;;;0.82;;
26858;SDS011;14429;48.346;16.338;2022-11-21T11:17:50;0.80;;;0.80;;
26858;SDS011;14429;48.346;16.338;2022-11-21T11:20:28;0.70;;;0.60;;
26858;SDS011;14429;48.346;16.338;2022-11-21T11:22:57;1.10;;;0.75;;
26858;SDS011;14429;48.346;16.338;2022-11-21T11:25:23;1.83;;;1.00;;
26858;SDS011;14429;48.346;16.338;2022-11-21T11:27:49;1.00;;;0.90;;
26858;SDS011;14429;48.346;16.338;2022-11-21T11:30:15;1.45;;;1.05;;
26858;SDS011;14429;48.346;16.338;2022-11-21T11:32:42;0.95;;;0.68;;
26858;SDS011;14429;48.346;16.338;2022-11-21T11:35:08;0.85;;;0.77;;
26858;SDS011;14429;48.346;16.338;2022-11-21T11:37:46;1.67;;;0.68;;
26858;SDS011;14429;48.346;16.338;2022-11-21T11:40:20;1.42;;;0.80;;
26858;SDS011;14429;48.346;16.338;2022-11-21T11:43:09;0.93;;;0.68;;
26858;SDS011;14429;48.346;16.338;2022-11-21T11:45:48;1.30;;;0.80;;
26858;SDS011;14429;48.346;16.338;2022-11-21T11:48:24;1.00;;;0.90;;
26858;SDS011;14429;48.346;16.338;2022-11-21T11:50:54;0.88;;;0.75;;
26858;SDS011;14429;48.346;16.338;2022-11-21T11:53:25;0.90;;;0.70;;
26858;SDS011;14429;48.346;16.338;2022-11-21T11:55:55;1.42;;;0.77;;
26858;SDS011;14429;48.346;16.338;2022-11-21T11:58:25;0.73;;;0.52;;
26858;SDS011;14429;48.346;16.338;2022-11-21T12:00:55;1.20;;;0.93;;
26858;SDS011;14429;48.346;16.338;2022-11-21T12:03:25;1.55;;;0.75;;
26858;SDS011;14429;48.346;16.338;2022-11-21T12:05:59;0.60;;;0.60;;
26858;SDS011;14429;48.346;16.338;2022-11-21T12:08:29;0.88;;;0.60;;
26858;SDS011;14429;48.346;16.338;2022-11-21T12:11:05;1.45;;;0.98;;
26858;SDS011;14429;48.346;16.338;2022-11-21T12:13:37;2.63;;;1.05;;
26858;SDS011;14429;48.346;16.338;2022-11-21T12:16:04;0.90;;;0.65;;
26858;SDS011;14429;48.346;16.338;2022-11-21T12:18:35;2.10;;;0.95;;
26858;SDS011;14429;48.346;16.338;2022-11-21T12:21:11;2.50;;;0.80;;
26858;SDS011;14429;48.346;16.338;2022-11-21T12:23:39;1.10;;;0.63;;
26858;SDS011;14429;48.346;16.338;2022-11-21T12:26:15;1.85;;;0.80;;
26858;SDS011;14429;48.346;16.338;2022-11-21T12:28:53;1.02;;;0.50;;
26858;SDS011;14429;48.346;16.338;2022-11-21T12:31:31;0.77;;;0.68;;
26858;SDS011;14429;48.346;16.338;2022-11-21T12:34:12;1.27;;;0.80;;
26858;SDS011;14429;48.346;16.338;2022-11-21T12:36:52;0.63;;;0.63;;
26858;SDS011;14429;48.346;16.338;2022-11-21T12:39:37;0.85;;;0.65;;
26858;SDS011;14429;48.346;16.338;2022-11-21T12:42:15;1.33;;;0.60;;
26858;SDS011;14429;48.346;16.338;2022-11-21T12:44:53;0.77;;;0.50;;
26858;SDS011;14429;48.346;16.338;2022-11-21T12:47:34;0.40;;;0.40;;
26858;SDS011;14429;48.346;16.338;2022-11-21T12:50:16;0.68;;;0.68;;
26858;SDS011;14429;48.346;16.338;2022-11-21T12:52:47;1.20;;;0.82;;
26858;SDS011;14429;48.346;16.338;2022-11-21T12:55:28;0.45;;;0.45;;
26858;SDS011;14429;48.346;16.338;2022-11-21T12:58:11;0.90;;;0.60;;
26858;SDS011;14429;48.346;16.338;2022-11-21T13:00:51;1.10;;;0.73;;
26858;SDS011;14429;48.346;16.338;2022-11-21T13:03:37;0.70;;;0.70;;
26858;SDS011;14429;48.346;16.338;2022-11-21T13:06:11;1.30;;;0.70;;
26858;SDS011;14429;48.346;16.338;2022-11-21T13:08:40;2.13;;;0.80;;
26858;SDS011;14429;48.346;16.338;2022-11-21T13:11:09;0.65;;;0.60;;
26858;SDS011;14429;48.346;16.338;2022-11-21T13:13:42;1.52;;;0.52;;
26858;SDS011;14429;48.346;16.338;2022-11-21T13:16:15;0.50;;;0.50;;
26858;SDS011;14429;48.346;16.338;2022-11-21T13:18:44;0.55;;;0.40;;
26858;SDS011;14429;48.346;16.338;2022-11-21T13:24:07;1.45;;;0.80;;
26858;SDS011;14429;48.346;16.338;2022-11-21T13:26:46;1.02;;;0.80;;
26858;SDS011;14429;48.346;16.338;2022-11-21T13:29:17;1.33;;;0.77;;
26858;SDS011;14429;48.346;16.338;2022-11-21T13:31:43;0.88;;;0.60;;
26858;SDS011;14429;48.346;16.338;2022-11-21T13:36:59;2.03;;;0.80;;
26858;SDS011;14429;48.346;16.338;2022-11-21T13:39:25;0.82;;;0.57;;
26858;SDS011;14429;48.346;16.338;2022-11-21T13:41:57;0.90;;;0.60;;
26858;SDS011;14429;48.346;16.338;2022-11-21T13:44:37;0.88;;;0.60;;
26858;SDS011;14429;48.346;16.338;2022-11-21T13:47:04;0.90;;;0.50;;
26858;SDS011;14429;48.346;16.338;2022-11-21T13:49:35;0.40;;;0.40;;
26858;SDS011;14429;48.346;16.338;2022-11-21T13:52:09;0.52;;;0.52;;
26858;SDS011;14429;48.346;16.338;2022-11-21T13:57:47;1.95;;;0.73;;
26858;SDS011;14429;48.346;16.338;2022-11-21T14:00:28;0.75;;;0.60;;
26858;SDS011;14429;48.346;16.338;2022-11-21T14:03:08;1.17;;;0.65;;
26858;SDS011;14429;48.346;16.338;2022-11-21T14:06:01;1.23;;;0.45;;
26858;SDS011;14429;48.346;16.338;2022-11-21T14:08:41;0.55;;;0.55;;
26858;SDS011;14429;48.346;16.338;2022-11-21T14:11:19;2.05;;;0.60;;
26858;SDS011;14429;48.346;16.338;2022-11-21T14:13:46;0.63;;;0.50;;
26858;SDS011;14429;48.346;16.338;2022-11-21T14:16:19;7.47;;;1.10;;
26858;SDS011;14429;48.346;16.338;2022-11-21T14:18:52;0.73;;;0.68;;
26858;SDS011;14429;48.346;16.338;2022-11-21T14:21:18;0.88;;;0.65;;
26858;SDS011;14429;48.346;16.338;2022-11-21T14:23:46;1.38;;;0.70;;
26858;SDS011;14429;48.346;16.338;2022-11-21T14:26:13;1.27;;;0.47;;
26858;SDS011;14429;48.346;16.338;2022-11-21T14:28:41;0.65;;;0.52;;
26858;SDS011;14429;48.346;16.338;2022-11-21T14:31:07;0.80;;;0.65;;
26858;SDS011;14429;48.346;16.338;2022-11-21T14:33:36;1.13;;;0.80;;
26858;SDS011;14429;48.346;16.338;2022-11-21T14:36:03;0.88;;;0.88;;
26858;SDS011;14429;48.346;16.338;2022-11-21T14:38:32;1.23;;;0.73;;
26858;SDS011;14429;48.346;16.338;2022-11-21T14:41:10;1.23;;;0.57;;
26858;SDS011;14429;48.346;16.338;2022-11-21T14:44:00;0.95;;;0.65;;
26858;SDS011;14429;48.346;16.338;2022-11-21T14:46:27;2.28;;;0.70;;
26858;SDS011;14429;48.346;16.338;2022-11-21T14:48:55;1.35;;;0.80;;
26858;SDS011;14429;48.346;16.338;2022-11-21T14:51:33;0.70;;;0.70;;
26858;SDS011;14429;48.346;16.338;2022-11-21T14:54:00;0.60;;;0.60;;
26858;SDS011;14429;48.346;16.338;2022-11-21T14:56:27;2.17;;;0.65;;